Versailles, New York
Current Conditions -  °F | °C
As of 10:53 AM on Saturday 25 Oct 2014 (Local Time) from KDKK Reporting Station
Light Rain Light Rain  
Wind Chill: 60°   Ceiling: 10000
Heat Index: 60°   Visibility: 10mi
Dew Point: 50°   Wind: 17mph
Humidity: 69%   Direction: 230°SW
Pressure: 29.77"   Gusts: 28mph
Location:  42.52°N, 79°W
Report Text: KDKK 251453Z AUTO 23015G24KT 10SM -RA FEW080 BKN100 16/10 A2977 RMK AO2 RAB48 SLP082 P0000 60000 T01560100 56028
Loading
Personal Weather Stations






























Interactive Weather Map
Tropical Storm Tracking
New forecast layout! Learn more

10-Day Weather Forecast

Advertisements
Track Severe Weather on mobile